createdAt,value
2017-06-19T00:00:10.812Z,1020.86
2017-06-19T00:01:10.848Z,1020.91
2017-06-19T00:02:10.885Z,1020.91
2017-06-19T00:03:10.918Z,1020.89
2017-06-19T00:04:10.953Z,1020.9
2017-06-19T00:05:10.970Z,1020.9
2017-06-19T00:06:11.010Z,1020.92
2017-06-19T00:07:11.065Z,1020.91
2017-06-19T00:08:11.099Z,1020.89
2017-06-19T00:09:11.119Z,1020.9
2017-06-19T00:10:11.171Z,1020.89
2017-06-19T00:11:11.206Z,1020.91
2017-06-19T00:12:11.241Z,1020.86
2017-06-19T00:13:11.277Z,1020.86
2017-06-19T00:14:11.318Z,1020.88
2017-06-19T00:15:11.350Z,1020.86
2017-06-19T00:16:11.385Z,1020.84
2017-06-19T00:17:11.422Z,1020.85
2017-06-19T00:18:11.456Z,1020.89
2017-06-19T00:19:11.490Z,1020.82
2017-06-19T00:20:11.530Z,1020.82
2017-06-19T00:21:11.564Z,1020.84
2017-06-19T00:22:11.603Z,1020.8
2017-06-19T00:23:11.636Z,1020.79
2017-06-19T00:24:11.653Z,1020.8
2017-06-19T00:25:11.708Z,1020.82
2017-06-19T00:26:11.728Z,1020.82
2017-06-19T00:27:11.784Z,1020.84
2017-06-19T00:28:11.815Z,1020.83
2017-06-19T00:29:11.851Z,1020.82
2017-06-19T00:30:11.887Z,1020.79
2017-06-19T00:31:11.925Z,1020.78
2017-06-19T00:32:11.966Z,1020.77
2017-06-19T00:33:11.980Z,1020.79
2017-06-19T00:34:12.033Z,1020.76
2017-06-19T00:35:12.065Z,1020.74
2017-06-19T00:36:12.103Z,1020.7
2017-06-19T00:37:12.137Z,1020.75
2017-06-19T00:38:12.169Z,1020.75
2017-06-19T00:39:12.207Z,1020.79
2017-06-19T00:40:12.243Z,1020.79
2017-06-19T00:41:12.280Z,1020.78
2017-06-19T00:42:12.318Z,1020.77
2017-06-19T00:43:12.354Z,1020.77
2017-06-19T00:44:12.388Z,1020.72
2017-06-19T00:45:12.426Z,1020.7
2017-06-19T00:46:12.462Z,1020.7
2017-06-19T00:47:12.493Z,1020.67
2017-06-19T00:48:12.530Z,1020.73
2017-06-19T00:49:12.565Z,1020.72
2017-06-19T00:50:12.603Z,1020.76
2017-06-19T00:51:12.638Z,1020.69
2017-06-19T00:52:12.662Z,1020.71
2017-06-19T00:53:12.709Z,1020.72
2017-06-19T00:54:12.751Z,1020.72
2017-06-19T00:55:12.780Z,1020.71
2017-06-19T00:56:12.822Z,1020.73
2017-06-19T00:57:12.854Z,1020.72
2017-06-19T00:58:12.885Z,1020.7
2017-06-19T00:59:12.924Z,1020.72
2017-06-19T01:00:12.961Z,1020.71
2017-06-19T01:01:12.980Z,1020.73
2017-06-19T01:02:13.029Z,1020.77
2017-06-19T01:03:13.066Z,1020.78
2017-06-19T01:04:13.102Z,1020.73
2017-06-19T01:05:13.135Z,1020.77
2017-06-19T01:06:13.162Z,1020.77
2017-06-19T01:07:13.209Z,1020.82
2017-06-19T01:08:13.239Z,1020.79
2017-06-19T01:09:13.280Z,1020.8
2017-06-19T01:10:13.315Z,1020.8
2017-06-19T01:11:13.352Z,1020.77
2017-06-19T01:12:13.384Z,1020.78
2017-06-19T01:13:13.428Z,1020.75
2017-06-19T01:14:13.459Z,1020.8
2017-06-19T01:15:13.479Z,1020.76
2017-06-19T01:16:13.529Z,1020.76
2017-06-19T01:17:13.565Z,1020.75
2017-06-19T01:18:13.596Z,1020.76
2017-06-19T01:19:13.633Z,1020.77
2017-06-19T01:20:13.667Z,1020.77
2017-06-19T01:21:13.707Z,1020.73
2017-06-19T01:22:13.722Z,1020.75
2017-06-19T01:23:13.781Z,1020.74
2017-06-19T01:24:13.812Z,1020.73
2017-06-19T01:25:13.850Z,1020.74
2017-06-19T01:26:13.883Z,1020.76
2017-06-19T01:27:13.924Z,1020.75
2017-06-19T01:28:13.960Z,1020.77
2017-06-19T01:29:13.991Z,1020.76
2017-06-19T01:30:14.024Z,1020.74
2017-06-19T01:31:14.058Z,1020.76
2017-06-19T01:32:14.101Z,1020.73
2017-06-19T01:33:14.130Z,1020.77
2017-06-19T01:34:14.165Z,1020.76
2017-06-19T01:35:14.200Z,1020.78
2017-06-19T01:36:14.236Z,1020.72
2017-06-19T01:37:14.262Z,1020.69
2017-06-19T01:38:14.308Z,1020.74
2017-06-19T01:39:14.347Z,1020.75
2017-06-19T01:40:14.377Z,1020.68
2017-06-19T01:41:14.414Z,1020.71
2017-06-19T01:42:14.452Z,1020.71
2017-06-19T01:43:14.482Z,1020.72
2017-06-19T01:44:14.521Z,1020.69
2017-06-19T01:45:14.557Z,1020.65
2017-06-19T01:46:14.591Z,1020.66
2017-06-19T01:47:14.609Z,1020.66
2017-06-19T01:48:14.663Z,1020.67
2017-06-19T01:49:14.698Z,1020.65
2017-06-19T01:50:14.734Z,1020.71
2017-06-19T01:51:14.747Z,1020.75
2017-06-19T01:52:14.802Z,1020.69
2017-06-19T01:53:14.845Z,1020.76
2017-06-19T01:54:14.863Z,1020.7
2017-06-19T01:55:14.894Z,1020.77
2017-06-19T01:56:14.945Z,1020.69
2017-06-19T01:57:14.985Z,1020.71
2017-06-19T01:58:15.015Z,1020.72
2017-06-19T01:59:15.054Z,1020.74
2017-06-19T02:00:15.086Z,1020.7
2017-06-19T02:01:15.100Z,1020.73
2017-06-19T02:02:15.160Z,1020.72
2017-06-19T02:03:15.192Z,1020.71
2017-06-19T02:04:15.228Z,1020.69
2017-06-19T02:05:15.264Z,1020.75
2017-06-19T02:06:15.302Z,1020.68
2017-06-19T02:07:15.332Z,1020.72
2017-06-19T02:08:15.350Z,1020.73
2017-06-19T02:09:15.400Z,1020.69
2017-06-19T02:10:15.437Z,1020.72
2017-06-19T02:11:15.463Z,1020.73
2017-06-19T02:12:15.513Z,1020.71
2017-06-19T02:13:15.547Z,1020.7
2017-06-19T02:14:15.560Z,1020.69
2017-06-19T02:15:15.615Z,1020.72
2017-06-19T02:16:15.660Z,1020.72
2017-06-19T02:17:15.669Z,1020.74
2017-06-19T02:18:15.719Z,1020.72
2017-06-19T02:19:15.753Z,1020.77
2017-06-19T02:20:15.792Z,1020.74
2017-06-19T02:21:15.826Z,1020.76
2017-06-19T02:22:15.863Z,1020.73
2017-06-19T02:23:15.893Z,1020.7
2017-06-19T02:24:15.915Z,1020.76
2017-06-19T02:25:15.965Z,1020.74
2017-06-19T02:26:16.002Z,1020.73
2017-06-19T02:27:16.033Z,1020.75
2017-06-19T02:28:16.065Z,1020.75
2017-06-19T02:29:16.109Z,1020.76
2017-06-19T02:30:16.139Z,1020.76
2017-06-19T02:31:16.155Z,1020.71
2017-06-19T02:32:16.209Z,1020.74
2017-06-19T02:33:16.247Z,1020.76
2017-06-19T02:34:16.281Z,1020.76
2017-06-19T02:35:16.316Z,1020.71
2017-06-19T02:36:16.352Z,1020.76
2017-06-19T02:37:16.384Z,1020.77
2017-06-19T02:38:16.421Z,1020.74
2017-06-19T02:39:16.440Z,1020.81
2017-06-19T02:40:16.489Z,1020.77
2017-06-19T02:41:16.529Z,1020.8
2017-06-19T02:42:16.560Z,1020.79
2017-06-19T02:43:16.602Z,1020.79
2017-06-19T02:44:16.631Z,1020.8
2017-06-19T02:45:16.748Z,1020.78
2017-06-19T02:46:16.708Z,1020.78
2017-06-19T02:47:16.737Z,1020.82
2017-06-19T02:48:16.768Z,1020.84
2017-06-19T02:49:16.791Z,1020.84
2017-06-19T02:50:16.847Z,1020.86
2017-06-19T02:51:16.873Z,1020.85
2017-06-19T02:52:16.910Z,1020.86
2017-06-19T02:53:16.947Z,1020.86
2017-06-19T02:54:16.983Z,1020.84
2017-06-19T02:55:17.017Z,1020.85
2017-06-19T02:56:17.053Z,1020.82
2017-06-19T02:57:17.088Z,1020.85
2017-06-19T02:58:17.121Z,1020.79
2017-06-19T02:59:17.163Z,1020.81
2017-06-19T03:00:17.192Z,1020.81
2017-06-19T03:01:17.229Z,1020.78
2017-06-19T03:02:17.263Z,1020.78
2017-06-19T03:03:17.299Z,1020.78
2017-06-19T03:04:17.330Z,1020.79
2017-06-19T03:05:17.370Z,1020.76
2017-06-19T03:06:17.398Z,1020.82
2017-06-19T03:07:17.438Z,1020.83
2017-06-19T03:08:17.473Z,1020.82
2017-06-19T03:09:17.510Z,1020.84
2017-06-19T03:10:17.541Z,1020.84
2017-06-19T03:11:17.573Z,1020.87
2017-06-19T03:12:17.614Z,1020.86
2017-06-19T03:13:17.648Z,1020.87
2017-06-19T03:14:17.679Z,1020.9
2017-06-19T03:15:17.720Z,1020.93
2017-06-19T03:16:17.757Z,1020.86
2017-06-19T03:17:17.770Z,1020.91
2017-06-19T03:18:17.820Z,1020.87
2017-06-19T03:19:17.862Z,1020.86
2017-06-19T03:20:17.892Z,1020.85
2017-06-19T03:21:17.926Z,1020.83
2017-06-19T03:22:17.964Z,1020.89
2017-06-19T03:23:17.998Z,1020.87
2017-06-19T03:24:18.032Z,1020.92
2017-06-19T03:25:18.076Z,1020.88
2017-06-19T03:26:18.102Z,1020.87
2017-06-19T03:27:18.137Z,1020.9
2017-06-19T03:28:18.173Z,1020.88
2017-06-19T03:29:18.208Z,1020.88
2017-06-19T03:30:18.243Z,1020.91
2017-06-19T03:31:18.272Z,1020.85
2017-06-19T03:32:18.313Z,1020.94
2017-06-19T03:33:18.347Z,1020.9
2017-06-19T03:34:18.380Z,1020.86
2017-06-19T03:35:18.416Z,1020.92
2017-06-19T03:36:18.450Z,1020.9
2017-06-19T03:37:18.488Z,1020.95
2017-06-19T03:38:18.521Z,1020.87
2017-06-19T03:39:18.558Z,1020.93
2017-06-19T03:40:18.595Z,1020.93
2017-06-19T03:41:18.627Z,1020.93
2017-06-19T03:42:18.663Z,1020.94
2017-06-19T03:43:18.692Z,1020.93
2017-06-19T03:44:18.734Z,1020.91
2017-06-19T03:45:18.767Z,1020.92
2017-06-19T03:46:18.800Z,1020.93
2017-06-19T03:47:18.838Z,1020.93
2017-06-19T03:48:18.873Z,1020.97
2017-06-19T03:49:18.904Z,1020.94
2017-06-19T03:50:18.938Z,1020.93
2017-06-19T03:51:18.976Z,1020.96
2017-06-19T03:52:19.014Z,1020.93
2017-06-19T03:53:19.048Z,1020.95
2017-06-19T03:54:19.072Z,1020.96
2017-06-19T03:55:19.115Z,1020.96
2017-06-19T03:56:19.151Z,1020.94
2017-06-19T03:57:19.187Z,1020.96
2017-06-19T03:58:19.225Z,1020.97
2017-06-19T03:59:19.269Z,1020.97
2017-06-19T04:01:42.015Z,1020.98
2017-06-19T04:02:42.046Z,1021.01
2017-06-19T04:03:42.078Z,1021.01
2017-06-19T04:04:42.088Z,1021.02
2017-06-19T04:05:42.129Z,1021.02
2017-06-19T04:06:42.160Z,1021.01
2017-06-19T04:07:42.222Z,1021
2017-06-19T04:08:42.256Z,1021.01
2017-06-19T04:09:42.268Z,1021.06
2017-06-19T04:10:42.328Z,1021.04
2017-06-19T04:11:42.340Z,1021.11
2017-06-19T04:12:42.367Z,1021.19
2017-06-19T04:13:42.405Z,1021.35
2017-06-19T04:14:42.471Z,1021.54
2017-06-19T04:15:42.486Z,1021.68
2017-06-19T04:16:42.520Z,1021.8
2017-06-19T04:17:42.576Z,1021.77
2017-06-19T04:18:42.587Z,1021.64
2017-06-19T04:19:42.651Z,1021.6
2017-06-19T04:20:42.654Z,1021.46
2017-06-19T04:21:42.719Z,1021.26
2017-06-19T04:22:42.755Z,1021.34
2017-06-19T04:23:42.764Z,1021.58
2017-06-19T04:24:42.830Z,1021.83
2017-06-19T04:25:42.871Z,1022.06
2017-06-19T04:26:42.878Z,1022.13
2017-06-19T04:27:42.945Z,1022.24
2017-06-19T04:28:42.982Z,1022.24
2017-06-19T04:29:43.022Z,1022.17
2017-06-19T04:30:43.034Z,1022.17
2017-06-19T04:31:43.067Z,1022.08
2017-06-19T04:32:43.142Z,1021.87
2017-06-19T04:33:43.175Z,1021.29
2017-06-19T04:34:43.216Z,1021.09
2017-06-19T04:35:43.259Z,1021.21
2017-06-19T04:36:43.258Z,1021.15
2017-06-19T04:37:43.304Z,1021.17
2017-06-19T04:38:43.353Z,1021.5
2017-06-19T04:39:43.385Z,1021.53
2017-06-19T04:40:43.453Z,1021.4
2017-06-19T04:41:43.463Z,1021.36
2017-06-19T04:42:43.500Z,1021.31
2017-06-19T04:43:43.570Z,1021.41
2017-06-19T04:44:43.608Z,1021.48
2017-06-19T04:45:43.617Z,1022
2017-06-19T04:46:43.658Z,1022.66
2017-06-19T04:47:43.701Z,1022.12
2017-06-19T04:48:43.764Z,1021.59
2017-06-19T04:49:43.784Z,1021.66
2017-06-19T04:50:43.820Z,1021.88
2017-06-19T04:51:43.885Z,1021.83
2017-06-19T04:52:43.897Z,1021.32
2017-06-19T04:53:43.967Z,1021.2
2017-06-19T04:54:43.981Z,1021.16
2017-06-19T04:55:44.016Z,1021.11
2017-06-19T04:56:44.087Z,1021.03
2017-06-19T04:57:44.138Z,1021.11
2017-06-19T04:58:44.135Z,1021.15
2017-06-19T04:59:44.177Z,1021.11
2017-06-19T05:00:44.243Z,1021.2
2017-06-19T05:01:44.285Z,1021.19
2017-06-19T05:02:44.322Z,1021.26
2017-06-19T05:03:44.366Z,1021.23
2017-06-19T05:04:44.372Z,1021.2
2017-06-19T05:05:44.456Z,1021.23
2017-06-19T05:06:44.483Z,1021.21
2017-06-19T05:07:44.498Z,1021.15
2017-06-19T05:08:44.536Z,1021.23
2017-06-19T05:09:44.571Z,1021.27
2017-06-19T05:10:44.612Z,1021.15
2017-06-19T05:11:44.681Z,1021.04
2017-06-19T05:12:44.721Z,1021.09
2017-06-19T05:13:44.731Z,1021.19
2017-06-19T05:14:44.766Z,1021.24
2017-06-19T05:15:44.839Z,1021.25
2017-06-19T05:16:44.845Z,1021.26
2017-06-19T05:17:44.892Z,1021.24
2017-06-19T05:18:44.955Z,1021.16
2017-06-19T05:19:44.971Z,1021.09
2017-06-19T05:20:45.036Z,1021.05
2017-06-19T05:21:45.058Z,1021.05
2017-06-19T05:22:45.085Z,1021.08
2017-06-19T05:23:45.125Z,1021.07
2017-06-19T05:24:45.169Z,1021.03
2017-06-19T05:25:45.211Z,1021.01
2017-06-19T05:26:45.255Z,1021.02
2017-06-19T05:27:45.290Z,1021
2017-06-19T05:28:45.331Z,1020.97
2017-06-19T05:29:45.373Z,1021.02
2017-06-19T05:30:45.440Z,1020.98
2017-06-19T05:31:45.458Z,1020.97
2017-06-19T05:32:45.494Z,1020.95
2017-06-19T05:33:45.537Z,1020.99
2017-06-19T05:34:45.580Z,1020.99
2017-06-19T05:35:45.614Z,1021.05
2017-06-19T05:36:45.659Z,1021
2017-06-19T05:37:45.700Z,1021.02
2017-06-19T05:38:45.740Z,1021.04
2017-06-19T05:39:45.801Z,1021.06
2017-06-19T05:40:45.818Z,1021.03
2017-06-19T05:41:45.859Z,1021.05
2017-06-19T05:42:45.899Z,1021.07
2017-06-19T05:43:45.962Z,1021.05
2017-06-19T05:44:45.997Z,1021.04
2017-06-19T05:45:46.017Z,1021.01
2017-06-19T05:46:46.083Z,1021.02
2017-06-19T05:47:46.088Z,1021.01
2017-06-19T05:48:46.160Z,1021.03
2017-06-19T05:49:46.199Z,1021.01
2017-06-19T05:50:46.218Z,1021
2017-06-19T05:51:46.281Z,1021.05
2017-06-19T05:52:46.289Z,1021.05
2017-06-19T05:53:46.335Z,1021.04
2017-06-19T05:54:46.398Z,1021.03
2017-06-19T05:55:46.438Z,1021.04
2017-06-19T05:56:46.452Z,1021.04
2017-06-19T05:57:46.491Z,1021.03
2017-06-19T05:58:46.533Z,1021.09
2017-06-19T05:59:46.571Z,1021.07
2017-06-19T06:00:46.633Z,1021.11
2017-06-19T06:01:46.651Z,1021.17
2017-06-19T06:02:46.710Z,1021.15
2017-06-19T06:03:46.724Z,1021.15
2017-06-19T06:04:46.796Z,1021.12
2017-06-19T06:05:46.834Z,1021.16
2017-06-19T06:06:46.842Z,1021.31
2017-06-19T06:07:46.911Z,1021.24
2017-06-19T06:08:46.954Z,1021.27
2017-06-19T06:09:46.964Z,1021.34
2017-06-19T06:10:47.005Z,1021.29
2017-06-19T06:11:47.078Z,1021.27
2017-06-19T06:12:47.116Z,1021.38
2017-06-19T06:13:47.156Z,1021.35
2017-06-19T06:14:47.167Z,1021.43
2017-06-19T06:15:47.203Z,1021.34
2017-06-19T06:16:47.278Z,1021.37
2017-06-19T06:17:47.316Z,1021.43
2017-06-19T06:18:47.333Z,1021.41
2017-06-19T06:19:47.396Z,1021.41
2017-06-19T06:20:47.416Z,1021.46
2017-06-19T06:21:47.456Z,1021.43
2017-06-19T06:22:47.521Z,1021.4
2017-06-19T06:23:47.543Z,1021.43
2017-06-19T06:24:47.583Z,1021.41
2017-06-19T06:25:47.653Z,1021.39
2017-06-19T06:26:47.693Z,1021.39
2017-06-19T06:27:47.709Z,1021.38
2017-06-19T06:28:47.750Z,1021.37
2017-06-19T06:29:47.825Z,1021.36
2017-06-19T06:30:47.838Z,1021.44
2017-06-19T06:31:47.913Z,1021.39
2017-06-19T06:32:47.953Z,1021.34
2017-06-19T06:33:47.979Z,1021.31
2017-06-19T06:34:48.018Z,1021.33
2017-06-19T06:35:48.063Z,1021.32
2017-06-19T06:36:48.104Z,1021.35
2017-06-19T06:37:48.153Z,1021.33
2017-06-19T06:38:48.195Z,1021.35
2017-06-19T06:39:48.253Z,1021.29
2017-06-19T06:40:48.319Z,1021.31
2017-06-19T06:41:48.327Z,1021.27
2017-06-19T06:42:48.380Z,1021.32
2017-06-19T06:43:48.423Z,1021.28
2017-06-19T06:44:48.495Z,1021.28
2017-06-19T06:45:48.515Z,1021.27
2017-06-19T06:46:48.560Z,1021.3
2017-06-19T06:47:48.606Z,1021.25
2017-06-19T06:48:48.680Z,1021.3
2017-06-19T06:49:48.721Z,1021.28
2017-06-19T06:50:48.743Z,1021.22
2017-06-19T06:51:48.817Z,1021.24
2017-06-19T06:52:48.862Z,1021.27
2017-06-19T06:53:48.914Z,1021.23
2017-06-19T06:54:48.924Z,1021.22
2017-06-19T06:55:48.981Z,1021.27
2017-06-19T06:56:49.050Z,1021.24
2017-06-19T06:57:49.099Z,1021.22
2017-06-19T06:58:49.126Z,1021.24
2017-06-19T06:59:49.163Z,1021.24
2017-06-19T07:00:49.207Z,1021.27
2017-06-19T07:01:49.260Z,1021.23
2017-06-19T07:02:49.307Z,1021.24
2017-06-19T07:03:49.349Z,1021.18
2017-06-19T07:04:49.397Z,1021.23
2017-06-19T07:05:49.446Z,1021.22
2017-06-19T07:06:49.526Z,1021.23
2017-06-19T07:07:49.568Z,1021.24
2017-06-19T07:08:49.621Z,1021.21
2017-06-19T07:09:49.637Z,1021.19
2017-06-19T07:10:49.684Z,1021.19
2017-06-19T07:11:49.759Z,1021.22
2017-06-19T07:12:49.782Z,1021.18
2017-06-19T07:13:49.833Z,1021.14
2017-06-19T07:14:49.871Z,1021.1
2017-06-19T07:15:49.918Z,1021.14
2017-06-19T07:16:49.998Z,1021.11
2017-06-19T07:17:50.017Z,1021.13
2017-06-19T07:18:50.093Z,1021.13
2017-06-19T07:19:50.117Z,1021.14
2017-06-19T07:20:50.166Z,1021.17
2017-06-19T07:21:50.236Z,1021.19
2017-06-19T07:22:50.256Z,1021.2
2017-06-19T07:23:50.336Z,1021.19
2017-06-19T07:24:50.357Z,1021.25
2017-06-19T07:25:50.429Z,1021.21
2017-06-19T07:26:50.475Z,1021.22
2017-06-19T07:27:50.528Z,1021.29
2017-06-19T07:28:50.575Z,1021.26
2017-06-19T07:29:50.620Z,1021.34
2017-06-19T07:30:50.642Z,1021.34
2017-06-19T07:31:50.720Z,1021.38
2017-06-19T07:32:50.736Z,1021.39
2017-06-19T07:33:50.817Z,1021.38
2017-06-19T07:34:50.865Z,1021.33
2017-06-19T07:35:50.889Z,1021.38
2017-06-19T07:36:50.961Z,1021.4
2017-06-19T07:37:50.984Z,1021.39
2017-06-19T07:38:51.037Z,1021.41
2017-06-19T07:39:51.085Z,1021.42
2017-06-19T07:40:51.138Z,1021.36
2017-06-19T07:41:51.179Z,1021.33
2017-06-19T07:42:51.229Z,1021.34
2017-06-19T07:43:51.305Z,1021.36
2017-06-19T07:44:51.328Z,1021.32
2017-06-19T07:45:51.405Z,1021.25
2017-06-19T07:46:51.425Z,1021.3
2017-06-19T07:47:51.477Z,1021.31
2017-06-19T07:48:51.518Z,1021.31
2017-06-19T07:49:51.575Z,1021.3
2017-06-19T07:50:51.626Z,1021.3
2017-06-19T07:51:51.672Z,1021.29
2017-06-19T07:52:51.724Z,1021.24
2017-06-19T07:53:51.776Z,1021.25
2017-06-19T07:54:51.817Z,1021.26
2017-06-19T07:55:51.874Z,1021.21
2017-06-19T07:56:51.921Z,1021.25
2017-06-19T07:57:51.998Z,1021.27
2017-06-19T07:58:52.025Z,1021.24
2017-06-19T07:59:52.075Z,1021.25
2017-06-19T08:00:52.147Z,1021.26
2017-06-19T08:01:52.169Z,1021.27
2017-06-19T08:02:52.247Z,1021.24
2017-06-19T08:03:52.272Z,1021.3
2017-06-19T08:04:52.329Z,1021.28
2017-06-19T08:05:52.396Z,1021.34
2017-06-19T08:06:52.445Z,1021.3
2017-06-19T08:07:52.468Z,1021.27
2017-06-19T08:08:52.543Z,1021.23
2017-06-19T08:09:52.598Z,1021.19
2017-06-19T08:10:52.627Z,1021.27
2017-06-19T08:11:52.696Z,1021.18
2017-06-19T08:12:52.747Z,1021.19
2017-06-19T08:13:52.796Z,1021.21
2017-06-19T08:14:52.846Z,1021.14
2017-06-19T08:15:52.873Z,1021.19
2017-06-19T08:16:52.926Z,1021.18
2017-06-19T08:17:53.001Z,1021.19
2017-06-19T08:18:53.026Z,1021.2
2017-06-19T08:19:53.103Z,1021.18
2017-06-19T08:20:53.122Z,1021.19
2017-06-19T08:21:53.178Z,1021.22
2017-06-19T08:22:53.227Z,1021.22
2017-06-19T08:23:53.278Z,1021.25
2017-06-19T08:24:53.328Z,1021.24
2017-06-19T08:25:53.405Z,1021.28
2017-06-19T08:26:53.428Z,1021.31
2017-06-19T08:27:53.489Z,1021.27
2017-06-19T08:28:53.527Z,1021.2
2017-06-19T08:29:53.583Z,1021.25
2017-06-19T08:30:53.635Z,1021.26
2017-06-19T08:31:53.713Z,1021.27
2017-06-19T08:32:53.734Z,1021.23
2017-06-19T08:33:53.793Z,1021.22
2017-06-19T08:34:53.828Z,1021.18
2017-06-19T08:35:53.913Z,1021.22
2017-06-19T08:36:53.929Z,1021.21
2017-06-19T08:37:54.014Z,1021.16
2017-06-19T08:38:54.040Z,1021.16
2017-06-19T08:39:54.112Z,1021.18
2017-06-19T08:40:54.146Z,1021.18
2017-06-19T08:41:54.220Z,1021.18
2017-06-19T08:42:54.237Z,1021.1
2017-06-19T08:43:54.289Z,1021.08
2017-06-19T08:44:54.339Z,1021.12
2017-06-19T08:45:54.405Z,1021.11
2017-06-19T08:46:54.447Z,1021.13
2017-06-19T08:47:54.526Z,1021.08
2017-06-19T08:48:54.549Z,1021.11
2017-06-19T08:49:54.626Z,1021.08
2017-06-19T08:50:54.649Z,1021.06
2017-06-19T08:51:54.705Z,1020.99
2017-06-19T08:52:54.751Z,1021
2017-06-19T08:53:54.834Z,1021.02
2017-06-19T08:54:54.885Z,1021.05
2017-06-19T08:55:54.939Z,1021.04
2017-06-19T08:56:54.987Z,1021.02
2017-06-19T08:57:55.011Z,1021.04
2017-06-19T08:58:55.067Z,1021.04
2017-06-19T08:59:55.117Z,1021.02
2017-06-19T09:00:55.196Z,1021.04
2017-06-19T09:01:55.245Z,1020.96
2017-06-19T09:02:55.302Z,1021.03
2017-06-19T09:03:55.351Z,1021.05
2017-06-19T09:04:55.376Z,1021.03
2017-06-19T09:05:55.432Z,1021.03
2017-06-19T09:06:55.481Z,1021.04
2017-06-19T09:07:55.524Z,1021.01
2017-06-19T09:08:55.588Z,1021.07
2017-06-19T09:09:55.643Z,1021.03
2017-06-19T09:10:55.715Z,1021.02
2017-06-19T09:11:55.770Z,1021.05
2017-06-19T09:12:55.806Z,1021.03
2017-06-19T09:13:55.856Z,1021
2017-06-19T09:14:55.934Z,1020.99
2017-06-19T09:15:55.957Z,1020.95
2017-06-19T09:16:56.014Z,1020.93
2017-06-19T09:17:56.058Z,1020.94
2017-06-19T09:18:56.113Z,1020.97
2017-06-19T09:19:56.170Z,1020.95
2017-06-19T09:20:56.224Z,1020.96
2017-06-19T09:21:56.277Z,1020.96
2017-06-19T09:22:56.359Z,1020.96
2017-06-19T09:23:56.416Z,1020.95
2017-06-19T09:24:56.468Z,1020.92
2017-06-19T09:25:56.518Z,1020.89
2017-06-19T09:26:56.549Z,1020.86
2017-06-19T09:27:56.605Z,1020.88
2017-06-19T09:28:56.648Z,1020.89
2017-06-19T09:29:56.732Z,1020.86
2017-06-19T09:30:56.758Z,1020.79
2017-06-19T09:31:56.844Z,1020.76
2017-06-19T09:32:56.897Z,1020.7
2017-06-19T09:33:56.958Z,1020.72
2017-06-19T09:34:57.010Z,1020.76
2017-06-19T09:35:57.036Z,1020.77
2017-06-19T09:36:57.116Z,1020.82
2017-06-19T09:37:57.137Z,1020.79
2017-06-19T09:38:57.228Z,1020.85
2017-06-19T09:39:57.252Z,1020.76
2017-06-19T09:40:57.311Z,1020.65
2017-06-19T09:41:57.364Z,1020.65
2017-06-19T09:42:57.446Z,1020.52
2017-06-19T09:43:57.476Z,1019.71
2017-06-19T09:44:57.527Z,1020.29
2017-06-19T09:45:57.582Z,1020.79
2017-06-19T09:46:57.634Z,1020.73
2017-06-19T09:47:57.690Z,1020.74
2017-06-19T09:48:57.751Z,1020.73
2017-06-19T09:49:57.827Z,1020.71
2017-06-19T09:50:57.886Z,1020.78
2017-06-19T09:51:57.935Z,1020.83
2017-06-19T09:52:57.993Z,1020.83
2017-06-19T09:53:58.046Z,1020.76
2017-06-19T09:54:58.069Z,1020.76
2017-06-19T09:55:58.154Z,1020.81
2017-06-19T09:56:58.182Z,1020.78
2017-06-19T09:57:58.235Z,1020.74
2017-06-19T09:58:58.296Z,1020.65
2017-06-19T09:59:58.377Z,1020.73
2017-06-19T10:00:58.582Z,1020.67
2017-06-19T10:01:58.459Z,1020.68
2017-06-19T10:02:58.542Z,1020.61
2017-06-19T10:03:58.594Z,1020.65
2017-06-19T10:04:58.652Z,1020.71
2017-06-19T10:05:58.705Z,1020.68
2017-06-19T10:06:58.763Z,1020.68
2017-06-19T10:07:58.817Z,1020.74
2017-06-19T10:08:58.844Z,1019.57
2017-06-19T10:09:58.897Z,1019.57
2017-06-19T10:10:58.948Z,1019.63
2017-06-19T10:11:59.007Z,1019.77
2017-06-19T10:12:59.088Z,1021.1
2017-06-19T10:13:59.111Z,1021.13
2017-06-19T10:14:59.179Z,1021.01
2017-06-19T10:15:59.251Z,1020.88
2017-06-19T10:16:59.279Z,1020.78
2017-06-19T10:17:59.359Z,1020.77
2017-06-19T10:18:59.385Z,1020.88
2017-06-19T10:19:59.461Z,1020.95
2017-06-19T10:20:59.487Z,1021.11
2017-06-19T10:21:59.536Z,1020.66
2017-06-19T10:22:59.592Z,1020.04
2017-06-19T10:23:59.642Z,1020.5
2017-06-19T10:24:59.721Z,1021.14
2017-06-19T10:25:59.747Z,1020.93
2017-06-19T10:26:59.829Z,1020.96
2017-06-19T10:27:59.855Z,1021.18
2017-06-19T10:28:59.905Z,1021.23
2017-06-19T10:29:59.947Z,1021.29
2017-06-19T10:31:00.019Z,1021.35
2017-06-19T10:32:00.060Z,1021.21
2017-06-19T10:33:00.108Z,1021.15
2017-06-19T10:34:00.201Z,1021.27
2017-06-19T10:35:00.234Z,1021.33
2017-06-19T10:36:00.263Z,1021.21
2017-06-19T10:37:00.334Z,1021.21
2017-06-19T10:38:00.356Z,1021.41
2017-06-19T10:39:00.412Z,1021.41
2017-06-19T10:40:00.455Z,1021.57
2017-06-19T10:41:00.537Z,1021.8
2017-06-19T10:42:00.560Z,1021.47
2017-06-19T10:43:00.604Z,1021.38
2017-06-19T10:44:00.651Z,1021.42
2017-06-19T10:45:00.730Z,1021.62
2017-06-19T10:46:00.754Z,1021.79
2017-06-19T10:47:00.827Z,1021.84
2017-06-19T10:48:00.851Z,1021.84
2017-06-19T10:49:00.901Z,1022.05
2017-06-19T10:50:00.970Z,1021.95
2017-06-19T10:51:01.019Z,1021.85
2017-06-19T10:52:01.065Z,1021.98
2017-06-19T10:53:01.118Z,1021.95
2017-06-19T10:54:01.142Z,1021.89
2017-06-19T10:55:01.181Z,1021.8
2017-06-19T10:56:01.275Z,1019.72
2017-06-19T10:57:01.278Z,1019.34
2017-06-19T10:58:01.327Z,1021.21
2017-06-19T10:59:01.370Z,1020.72
2017-06-19T11:00:01.418Z,1019.63
2017-06-19T11:01:01.470Z,1019.51
2017-06-19T11:02:01.534Z,1019.41
2017-06-19T11:03:01.555Z,1019.41
2017-06-19T11:04:01.600Z,1019.36
2017-06-19T11:05:01.643Z,1019.33
2017-06-19T11:06:01.719Z,1019.33
2017-06-19T11:07:01.738Z,1019.31
2017-06-19T11:08:01.806Z,1019.33
2017-06-19T11:09:01.854Z,1019.3
2017-06-19T11:10:01.881Z,1019.26
2017-06-19T11:11:01.911Z,1019.29
2017-06-19T11:12:01.973Z,1019.2
2017-06-19T11:13:02.005Z,1019.2
2017-06-19T11:14:02.054Z,1019.18
2017-06-19T11:15:02.098Z,1019.2
2017-06-19T11:16:02.141Z,1019.23
2017-06-19T11:17:02.213Z,1019.17
2017-06-19T11:18:02.255Z,1019.19
2017-06-19T11:19:02.276Z,1019.21
2017-06-19T11:20:02.349Z,1019.17
2017-06-19T11:21:02.356Z,1019.14
2017-06-19T11:22:02.433Z,1019.16
2017-06-19T11:23:02.450Z,1019.12
2017-06-19T11:24:02.494Z,1019.1
2017-06-19T11:25:02.538Z,1019.08
2017-06-19T11:26:02.606Z,1019.04
2017-06-19T11:27:02.628Z,1019.02
2017-06-19T11:28:02.669Z,1019.02
2017-06-19T11:29:02.709Z,1019.02
2017-06-19T11:30:02.750Z,1018.98
2017-06-19T11:31:02.827Z,1018.98
2017-06-19T11:32:02.868Z,1018.96
2017-06-19T11:33:02.913Z,1019
2017-06-19T11:34:02.957Z,1019
2017-06-19T11:35:02.966Z,1018.98
2017-06-19T11:36:03.034Z,1018.98
2017-06-19T11:37:03.048Z,1018.97
2017-06-19T11:38:03.103Z,1018.95
2017-06-19T11:39:03.182Z,1018.89
2017-06-19T11:40:03.188Z,1018.9
2017-06-19T11:41:03.250Z,1018.9
2017-06-19T11:42:03.272Z,1018.84
2017-06-19T11:43:03.321Z,1018.87
2017-06-19T11:44:03.349Z,1018.86
2017-06-19T11:45:03.402Z,1018.87
2017-06-19T11:46:03.485Z,1018.83
2017-06-19T11:47:03.486Z,1018.79
2017-06-19T11:48:03.557Z,1018.77
2017-06-19T11:49:03.599Z,1018.76
2017-06-19T11:50:03.651Z,1018.71
2017-06-19T11:51:03.658Z,1018.73
2017-06-19T11:52:03.707Z,1018.74
2017-06-19T11:53:03.785Z,1018.75
2017-06-19T11:54:03.827Z,1018.72
2017-06-19T11:55:03.857Z,1018.72
2017-06-19T11:56:03.866Z,1018.67
2017-06-19T11:57:03.938Z,1018.69
2017-06-19T11:58:03.949Z,1018.64
2017-06-19T11:59:04.024Z,1018.64
2017-06-19T12:00:04.068Z,1018.59
2017-06-19T12:01:04.077Z,1018.64
2017-06-19T12:02:04.155Z,1018.62
2017-06-19T12:03:04.169Z,1018.51
2017-06-19T12:04:04.209Z,1018.56
2017-06-19T12:05:04.290Z,1018.52
2017-06-19T12:06:04.297Z,1018.51
2017-06-19T12:07:04.362Z,1018.55
2017-06-19T12:08:04.380Z,1018.52
2017-06-19T12:09:04.448Z,1018.47
2017-06-19T12:10:04.491Z,1018.49